IE-0028 weather

Ballyboe Airstrip
County Tipperary, Ireland

Public forecast

Using degrees Celsius for public forecast. Weather courtesy of forecast.io.

METAR (pilot weather report)

Report is more than 2 hours old.

Closest report is Waterford Airport, 22.8 nm (42.2 km) ESE. Retrieved 2019/06/17 20:30 UTC (6 hours ago):

EIWF 172030Z 25010KT 200V290 CAVOK ///// Q1013

TAF (pilot weather forecast)

Forecast is more than 12 hours old.

Closest forecast is Cork Airport, 45.8 nm (84.8 km) SW. Retrieved 2019/06/17 00:09 UTC (1 day ago):

TAF TAF EICK 172300Z 1800/1824 VRB03KT 9999 FEW015 SCT030 TEMPO 1800/1805 3000 BR BKN007 PROB30 TEMPO 1801/1804 1200 BKN003 BECMG 1811/1813 19012KT BECMG 1820/1822 33010KT